KSYN/SYN METAR and TAF weather

Enter ICAO airport designator
Station Type Date Time Source
KSYN METAR 2019/12/06 08:55 UTC NOAA

KSYN 060855Z AUTO 32010KT 10SM BKN025 M01/M05 A3023 RMK AO2 T10071050


Station Type Date Time Source
KSYN Decoded METAR 2019/12/06 08:55 UTC NOAA

Stanton, Stanton Airfield, MN, United States (KSYN) 44-28-31N 093-00-58W
Dec 06, 2019 - 03:55 AM EST / 2019.12.06 0855 UTC
Wind: from the NW (320 degrees) at 12 MPH (10 KT):0
Visibility: 10 mile(s):0
Sky conditions: mostly cloudy
Temperature: 30.7 F (-0.7 C)
Windchill: 21 F (-6 C):1
Dew Point: 23.0 F (-5.0 C)
Relative Humidity: 72%
Pressure (altimeter): 30.23 in. Hg (1023 hPa)
ob: KSYN 060855Z AUTO 32010KT 10SM BKN025 M01/M05 A3023 RMK AO2 T10071050
cycle: 9

Station Type Date Time Source
KSYN TAF UTC NOAA

Error!

Example: see airport list